sensor_id;sensor_type;location;lat;lon;timestamp;P1;durP1;ratioP1;P2;durP2;ratioP2
69854;SDS011;57146;48.140;16.304;2024-01-30T00:00:39;20.05;;;7.45;;
69854;SDS011;57146;48.140;16.304;2024-01-30T00:03:06;23.52;;;8.15;;
69854;SDS011;57146;48.140;16.304;2024-01-30T00:05:34;19.80;;;7.40;;
69854;SDS011;57146;48.140;16.304;2024-01-30T00:08:01;19.27;;;7.30;;
69854;SDS011;57146;48.140;16.304;2024-01-30T00:10:28;19.73;;;7.20;;
69854;SDS011;57146;48.140;16.304;2024-01-30T00:12:55;22.23;;;7.40;;
69854;SDS011;57146;48.140;16.304;2024-01-30T00:15:23;23.77;;;7.43;;
69854;SDS011;57146;48.140;16.304;2024-01-30T00:17:50;20.83;;;7.55;;
69854;SDS011;57146;48.140;16.304;2024-01-30T00:20:17;21.80;;;7.40;;
69854;SDS011;57146;48.140;16.304;2024-01-30T00:22:45;22.10;;;7.50;;
69854;SDS011;57146;48.140;16.304;2024-01-30T00:25:12;19.33;;;7.40;;
69854;SDS011;57146;48.140;16.304;2024-01-30T00:27:39;21.38;;;7.28;;
69854;SDS011;57146;48.140;16.304;2024-01-30T00:30:06;23.55;;;7.65;;
69854;SDS011;57146;48.140;16.304;2024-01-30T00:32:34;21.87;;;7.23;;
69854;SDS011;57146;48.140;16.304;2024-01-30T00:35:01;17.50;;;6.55;;
69854;SDS011;57146;48.140;16.304;2024-01-30T00:37:28;21.60;;;7.35;;
69854;SDS011;57146;48.140;16.304;2024-01-30T00:39:55;22.95;;;7.32;;
69854;SDS011;57146;48.140;16.304;2024-01-30T00:42:22;21.58;;;6.72;;
69854;SDS011;57146;48.140;16.304;2024-01-30T00:44:49;18.23;;;7.23;;
69854;SDS011;57146;48.140;16.304;2024-01-30T00:47:16;22.80;;;7.50;;
69854;SDS011;57146;48.140;16.304;2024-01-30T00:49:43;16.75;;;7.03;;
69854;SDS011;57146;48.140;16.304;2024-01-30T00:52:10;19.05;;;7.00;;
69854;SDS011;57146;48.140;16.304;2024-01-30T00:54:37;20.55;;;7.20;;
69854;SDS011;57146;48.140;16.304;2024-01-30T00:57:04;22.07;;;7.20;;
69854;SDS011;57146;48.140;16.304;2024-01-30T00:59:31;20.38;;;6.95;;
69854;SDS011;57146;48.140;16.304;2024-01-30T01:01:58;20.48;;;7.45;;
69854;SDS011;57146;48.140;16.304;2024-01-30T01:04:25;21.33;;;7.70;;
69854;SDS011;57146;48.140;16.304;2024-01-30T01:06:52;20.33;;;7.20;;
69854;SDS011;57146;48.140;16.304;2024-01-30T01:09:19;20.13;;;7.30;;
69854;SDS011;57146;48.140;16.304;2024-01-30T01:11:47;20.67;;;7.60;;
69854;SDS011;57146;48.140;16.304;2024-01-30T01:14:14;22.33;;;7.80;;
69854;SDS011;57146;48.140;16.304;2024-01-30T01:16:41;22.35;;;7.38;;
69854;SDS011;57146;48.140;16.304;2024-01-30T01:19:08;21.00;;;7.50;;
69854;SDS011;57146;48.140;16.304;2024-01-30T01:21:35;21.40;;;7.57;;
69854;SDS011;57146;48.140;16.304;2024-01-30T01:24:02;16.92;;;6.95;;
69854;SDS011;57146;48.140;16.304;2024-01-30T01:26:30;17.65;;;6.60;;
69854;SDS011;57146;48.140;16.304;2024-01-30T01:28:57;19.77;;;7.22;;
69854;SDS011;57146;48.140;16.304;2024-01-30T01:31:24;20.95;;;7.30;;
69854;SDS011;57146;48.140;16.304;2024-01-30T01:33:50;19.17;;;6.67;;
69854;SDS011;57146;48.140;16.304;2024-01-30T01:36:18;22.63;;;7.53;;
69854;SDS011;57146;48.140;16.304;2024-01-30T01:38:45;19.30;;;6.90;;
69854;SDS011;57146;48.140;16.304;2024-01-30T01:41:12;20.17;;;7.55;;
69854;SDS011;57146;48.140;16.304;2024-01-30T01:43:39;18.45;;;7.05;;
69854;SDS011;57146;48.140;16.304;2024-01-30T01:46:06;19.27;;;7.23;;
69854;SDS011;57146;48.140;16.304;2024-01-30T01:48:33;20.83;;;7.57;;
69854;SDS011;57146;48.140;16.304;2024-01-30T01:51:00;17.73;;;7.10;;
69854;SDS011;57146;48.140;16.304;2024-01-30T01:53:28;22.73;;;7.15;;
69854;SDS011;57146;48.140;16.304;2024-01-30T01:55:55;19.63;;;6.75;;
69854;SDS011;57146;48.140;16.304;2024-01-30T01:58:23;19.37;;;7.13;;
69854;SDS011;57146;48.140;16.304;2024-01-30T02:00:54;21.70;;;6.80;;
69854;SDS011;57146;48.140;16.304;2024-01-30T02:03:22;21.17;;;6.93;;
69854;SDS011;57146;48.140;16.304;2024-01-30T02:05:50;20.05;;;7.07;;
69854;SDS011;57146;48.140;16.304;2024-01-30T02:08:18;19.98;;;6.82;;
69854;SDS011;57146;48.140;16.304;2024-01-30T02:10:45;21.80;;;6.87;;
69854;SDS011;57146;48.140;16.304;2024-01-30T02:13:12;19.45;;;7.25;;
69854;SDS011;57146;48.140;16.304;2024-01-30T02:15:40;20.13;;;7.25;;
69854;SDS011;57146;48.140;16.304;2024-01-30T02:18:07;24.67;;;7.60;;
69854;SDS011;57146;48.140;16.304;2024-01-30T02:20:34;20.00;;;6.97;;
69854;SDS011;57146;48.140;16.304;2024-01-30T02:23:02;22.33;;;7.10;;
69854;SDS011;57146;48.140;16.304;2024-01-30T02:25:39;19.13;;;7.00;;
69854;SDS011;57146;48.140;16.304;2024-01-30T02:28:06;20.08;;;7.25;;
69854;SDS011;57146;48.140;16.304;2024-01-30T02:30:35;19.17;;;6.72;;
69854;SDS011;57146;48.140;16.304;2024-01-30T02:33:02;21.08;;;6.93;;
69854;SDS011;57146;48.140;16.304;2024-01-30T02:35:29;20.80;;;7.23;;
69854;SDS011;57146;48.140;16.304;2024-01-30T02:37:56;20.10;;;7.03;;
69854;SDS011;57146;48.140;16.304;2024-01-30T02:40:23;20.70;;;7.75;;
69854;SDS011;57146;48.140;16.304;2024-01-30T02:42:50;23.70;;;7.80;;
69854;SDS011;57146;48.140;16.304;2024-01-30T02:45:17;22.35;;;7.53;;
69854;SDS011;57146;48.140;16.304;2024-01-30T02:47:45;22.33;;;7.83;;
69854;SDS011;57146;48.140;16.304;2024-01-30T02:50:12;24.73;;;7.47;;
69854;SDS011;57146;48.140;16.304;2024-01-30T02:52:39;21.02;;;7.80;;
69854;SDS011;57146;48.140;16.304;2024-01-30T02:55:07;23.13;;;8.27;;
69854;SDS011;57146;48.140;16.304;2024-01-30T02:57:36;20.23;;;7.43;;
69854;SDS011;57146;48.140;16.304;2024-01-30T03:00:04;22.47;;;7.17;;
69854;SDS011;57146;48.140;16.304;2024-01-30T03:02:31;22.38;;;7.13;;
69854;SDS011;57146;48.140;16.304;2024-01-30T03:04:59;22.67;;;7.35;;
69854;SDS011;57146;48.140;16.304;2024-01-30T03:07:26;18.23;;;7.07;;
69854;SDS011;57146;48.140;16.304;2024-01-30T03:09:54;19.13;;;6.55;;
69854;SDS011;57146;48.140;16.304;2024-01-30T03:12:21;21.20;;;6.73;;
69854;SDS011;57146;48.140;16.304;2024-01-30T03:14:48;23.25;;;7.03;;
69854;SDS011;57146;48.140;16.304;2024-01-30T03:17:15;24.48;;;7.47;;
69854;SDS011;57146;48.140;16.304;2024-01-30T03:19:42;21.50;;;7.40;;
69854;SDS011;57146;48.140;16.304;2024-01-30T03:22:10;26.20;;;8.30;;
69854;SDS011;57146;48.140;16.304;2024-01-30T03:24:37;23.30;;;7.73;;
69854;SDS011;57146;48.140;16.304;2024-01-30T03:27:04;25.70;;;8.45;;
69854;SDS011;57146;48.140;16.304;2024-01-30T03:29:31;27.08;;;9.38;;
69854;SDS011;57146;48.140;16.304;2024-01-30T03:31:58;26.40;;;8.57;;
69854;SDS011;57146;48.140;16.304;2024-01-30T03:34:25;24.98;;;8.27;;
69854;SDS011;57146;48.140;16.304;2024-01-30T03:36:52;21.27;;;6.90;;
69854;SDS011;57146;48.140;16.304;2024-01-30T03:39:19;19.90;;;7.28;;
69854;SDS011;57146;48.140;16.304;2024-01-30T03:41:46;23.38;;;7.90;;
69854;SDS011;57146;48.140;16.304;2024-01-30T03:44:13;20.08;;;7.13;;
69854;SDS011;57146;48.140;16.304;2024-01-30T03:46:40;21.30;;;8.10;;
69854;SDS011;57146;48.140;16.304;2024-01-30T03:49:07;24.27;;;7.90;;
69854;SDS011;57146;48.140;16.304;2024-01-30T03:51:34;21.23;;;7.47;;
69854;SDS011;57146;48.140;16.304;2024-01-30T03:54:01;22.02;;;7.45;;
69854;SDS011;57146;48.140;16.304;2024-01-30T03:56:28;20.67;;;7.05;;
69854;SDS011;57146;48.140;16.304;2024-01-30T03:58:56;23.75;;;7.60;;
69854;SDS011;57146;48.140;16.304;2024-01-30T04:01:23;21.60;;;7.57;;
69854;SDS011;57146;48.140;16.304;2024-01-30T04:03:52;22.20;;;7.70;;
69854;SDS011;57146;48.140;16.304;2024-01-30T04:06:19;24.45;;;7.72;;
69854;SDS011;57146;48.140;16.304;2024-01-30T04:08:46;20.10;;;7.18;;
69854;SDS011;57146;48.140;16.304;2024-01-30T04:11:14;22.23;;;7.47;;
69854;SDS011;57146;48.140;16.304;2024-01-30T04:13:41;18.93;;;7.53;;
69854;SDS011;57146;48.140;16.304;2024-01-30T04:16:08;21.75;;;7.60;;
69854;SDS011;57146;48.140;16.304;2024-01-30T04:18:45;22.52;;;7.45;;
69854;SDS011;57146;48.140;16.304;2024-01-30T04:21:12;20.00;;;7.25;;
69854;SDS011;57146;48.140;16.304;2024-01-30T04:23:39;23.95;;;8.13;;
69854;SDS011;57146;48.140;16.304;2024-01-30T04:26:07;18.47;;;7.17;;
69854;SDS011;57146;48.140;16.304;2024-01-30T04:28:34;23.35;;;7.15;;
69854;SDS011;57146;48.140;16.304;2024-01-30T04:31:01;19.65;;;7.35;;
69854;SDS011;57146;48.140;16.304;2024-01-30T04:33:32;22.52;;;7.50;;
69854;SDS011;57146;48.140;16.304;2024-01-30T04:36:00;22.75;;;7.18;;
69854;SDS011;57146;48.140;16.304;2024-01-30T04:38:27;20.63;;;7.70;;
69854;SDS011;57146;48.140;16.304;2024-01-30T04:40:54;22.75;;;7.28;;
69854;SDS011;57146;48.140;16.304;2024-01-30T04:43:21;19.38;;;7.20;;
69854;SDS011;57146;48.140;16.304;2024-01-30T04:45:49;22.05;;;7.88;;
69854;SDS011;57146;48.140;16.304;2024-01-30T04:48:16;22.95;;;7.55;;
69854;SDS011;57146;48.140;16.304;2024-01-30T04:50:43;23.30;;;8.23;;
69854;SDS011;57146;48.140;16.304;2024-01-30T04:53:10;20.08;;;7.43;;
69854;SDS011;57146;48.140;16.304;2024-01-30T04:55:37;23.70;;;7.80;;
69854;SDS011;57146;48.140;16.304;2024-01-30T04:58:04;20.98;;;7.63;;
69854;SDS011;57146;48.140;16.304;2024-01-30T05:00:31;24.33;;;7.68;;
69854;SDS011;57146;48.140;16.304;2024-01-30T05:02:58;25.33;;;8.17;;
69854;SDS011;57146;48.140;16.304;2024-01-30T05:05:25;20.83;;;7.97;;
69854;SDS011;57146;48.140;16.304;2024-01-30T05:07:52;24.75;;;8.15;;
69854;SDS011;57146;48.140;16.304;2024-01-30T05:10:19;21.33;;;8.00;;
69854;SDS011;57146;48.140;16.304;2024-01-30T05:12:46;22.55;;;7.35;;
69854;SDS011;57146;48.140;16.304;2024-01-30T05:15:13;22.87;;;8.07;;
69854;SDS011;57146;48.140;16.304;2024-01-30T05:17:40;21.95;;;7.97;;
69854;SDS011;57146;48.140;16.304;2024-01-30T05:20:09;22.55;;;7.85;;
69854;SDS011;57146;48.140;16.304;2024-01-30T05:22:37;26.13;;;8.35;;
69854;SDS011;57146;48.140;16.304;2024-01-30T05:25:04;23.10;;;7.80;;
69854;SDS011;57146;48.140;16.304;2024-01-30T05:27:35;22.10;;;8.17;;
69854;SDS011;57146;48.140;16.304;2024-01-30T05:30:02;21.58;;;8.15;;
69854;SDS011;57146;48.140;16.304;2024-01-30T05:32:29;27.05;;;8.80;;
69854;SDS011;57146;48.140;16.304;2024-01-30T05:34:57;29.48;;;9.15;;
69854;SDS011;57146;48.140;16.304;2024-01-30T05:37:24;26.05;;;9.02;;
69854;SDS011;57146;48.140;16.304;2024-01-30T05:39:51;23.17;;;8.60;;
69854;SDS011;57146;48.140;16.304;2024-01-30T05:42:19;23.92;;;8.18;;
69854;SDS011;57146;48.140;16.304;2024-01-30T05:44:45;23.40;;;8.75;;
69854;SDS011;57146;48.140;16.304;2024-01-30T05:47:13;20.08;;;7.82;;
69854;SDS011;57146;48.140;16.304;2024-01-30T05:49:40;24.45;;;8.60;;
69854;SDS011;57146;48.140;16.304;2024-01-30T05:52:07;26.30;;;9.23;;
69854;SDS011;57146;48.140;16.304;2024-01-30T05:54:34;25.95;;;8.75;;
69854;SDS011;57146;48.140;16.304;2024-01-30T05:57:01;21.92;;;8.55;;
69854;SDS011;57146;48.140;16.304;2024-01-30T05:59:29;26.02;;;8.77;;
69854;SDS011;57146;48.140;16.304;2024-01-30T06:01:56;25.33;;;8.55;;
69854;SDS011;57146;48.140;16.304;2024-01-30T06:04:25;22.13;;;8.13;;
69854;SDS011;57146;48.140;16.304;2024-01-30T06:06:52;22.13;;;8.73;;
69854;SDS011;57146;48.140;16.304;2024-01-30T06:09:19;23.58;;;8.80;;
69854;SDS011;57146;48.140;16.304;2024-01-30T06:11:46;28.52;;;8.85;;
69854;SDS011;57146;48.140;16.304;2024-01-30T06:14:13;22.83;;;8.45;;
69854;SDS011;57146;48.140;16.304;2024-01-30T06:17:05;24.33;;;8.40;;
69854;SDS011;57146;48.140;16.304;2024-01-30T06:19:34;22.75;;;8.27;;
69854;SDS011;57146;48.140;16.304;2024-01-30T06:22:04;23.88;;;8.60;;
69854;SDS011;57146;48.140;16.304;2024-01-30T06:24:35;26.20;;;8.88;;
69854;SDS011;57146;48.140;16.304;2024-01-30T06:27:03;26.58;;;8.50;;
69854;SDS011;57146;48.140;16.304;2024-01-30T06:29:30;26.63;;;8.93;;
69854;SDS011;57146;48.140;16.304;2024-01-30T06:31:57;23.38;;;8.55;;
69854;SDS011;57146;48.140;16.304;2024-01-30T06:34:25;21.90;;;8.85;;
69854;SDS011;57146;48.140;16.304;2024-01-30T06:37:17;22.85;;;8.30;;
69854;SDS011;57146;48.140;16.304;2024-01-30T06:39:44;23.48;;;8.60;;
69854;SDS011;57146;48.140;16.304;2024-01-30T06:42:11;22.10;;;8.40;;
69854;SDS011;57146;48.140;16.304;2024-01-30T06:44:39;23.70;;;8.63;;
69854;SDS011;57146;48.140;16.304;2024-01-30T06:47:06;27.98;;;9.07;;
69854;SDS011;57146;48.140;16.304;2024-01-30T06:49:33;24.55;;;9.05;;
69854;SDS011;57146;48.140;16.304;2024-01-30T06:52:00;23.73;;;8.70;;
69854;SDS011;57146;48.140;16.304;2024-01-30T06:54:28;24.27;;;8.73;;
69854;SDS011;57146;48.140;16.304;2024-01-30T06:56:55;28.30;;;7.75;;
69854;SDS011;57146;48.140;16.304;2024-01-30T06:59:21;24.15;;;8.55;;
69854;SDS011;57146;48.140;16.304;2024-01-30T07:01:49;24.70;;;8.55;;
69854;SDS011;57146;48.140;16.304;2024-01-30T07:04:16;25.23;;;8.27;;
69854;SDS011;57146;48.140;16.304;2024-01-30T07:06:45;29.03;;;9.40;;
69854;SDS011;57146;48.140;16.304;2024-01-30T07:09:12;25.38;;;9.52;;
69854;SDS011;57146;48.140;16.304;2024-01-30T07:11:39;26.90;;;9.10;;
69854;SDS011;57146;48.140;16.304;2024-01-30T07:14:05;26.52;;;10.00;;
69854;SDS011;57146;48.140;16.304;2024-01-30T07:16:32;28.17;;;9.82;;
69854;SDS011;57146;48.140;16.304;2024-01-30T07:18:59;25.93;;;10.03;;
69854;SDS011;57146;48.140;16.304;2024-01-30T07:21:26;30.15;;;10.05;;
69854;SDS011;57146;48.140;16.304;2024-01-30T07:23:53;27.73;;;9.93;;
69854;SDS011;57146;48.140;16.304;2024-01-30T07:26:21;26.17;;;9.25;;
69854;SDS011;57146;48.140;16.304;2024-01-30T07:28:48;27.33;;;10.25;;
69854;SDS011;57146;48.140;16.304;2024-01-30T07:31:15;26.13;;;9.33;;
69854;SDS011;57146;48.140;16.304;2024-01-30T07:33:42;24.27;;;9.13;;
69854;SDS011;57146;48.140;16.304;2024-01-30T07:36:09;28.58;;;9.38;;
69854;SDS011;57146;48.140;16.304;2024-01-30T07:38:36;27.42;;;9.70;;
69854;SDS011;57146;48.140;16.304;2024-01-30T07:41:03;23.95;;;8.82;;
69854;SDS011;57146;48.140;16.304;2024-01-30T07:43:30;25.13;;;9.07;;
69854;SDS011;57146;48.140;16.304;2024-01-30T07:45:59;26.80;;;9.07;;
69854;SDS011;57146;48.140;16.304;2024-01-30T07:48:26;27.13;;;9.20;;
69854;SDS011;57146;48.140;16.304;2024-01-30T07:50:53;23.60;;;8.48;;
69854;SDS011;57146;48.140;16.304;2024-01-30T07:53:20;25.38;;;8.57;;
69854;SDS011;57146;48.140;16.304;2024-01-30T07:55:47;24.20;;;8.60;;
69854;SDS011;57146;48.140;16.304;2024-01-30T07:58:14;23.98;;;8.18;;
69854;SDS011;57146;48.140;16.304;2024-01-30T08:00:41;20.55;;;8.38;;
69854;SDS011;57146;48.140;16.304;2024-01-30T08:03:08;24.35;;;9.18;;
69854;SDS011;57146;48.140;16.304;2024-01-30T08:05:35;23.83;;;8.48;;
69854;SDS011;57146;48.140;16.304;2024-01-30T08:08:02;21.80;;;8.43;;
69854;SDS011;57146;48.140;16.304;2024-01-30T08:10:29;23.73;;;8.05;;
69854;SDS011;57146;48.140;16.304;2024-01-30T08:12:56;20.73;;;8.43;;
69854;SDS011;57146;48.140;16.304;2024-01-30T08:15:22;23.50;;;8.32;;
69854;SDS011;57146;48.140;16.304;2024-01-30T08:17:49;22.98;;;8.25;;
69854;SDS011;57146;48.140;16.304;2024-01-30T08:20:16;23.43;;;8.20;;
69854;SDS011;57146;48.140;16.304;2024-01-30T08:22:43;27.67;;;8.52;;
69854;SDS011;57146;48.140;16.304;2024-01-30T08:25:10;22.90;;;8.40;;
69854;SDS011;57146;48.140;16.304;2024-01-30T08:27:37;22.17;;;8.10;;
69854;SDS011;57146;48.140;16.304;2024-01-30T08:30:08;20.10;;;8.05;;
69854;SDS011;57146;48.140;16.304;2024-01-30T08:32:35;21.17;;;8.60;;
69854;SDS011;57146;48.140;16.304;2024-01-30T08:35:02;20.85;;;7.80;;
69854;SDS011;57146;48.140;16.304;2024-01-30T08:37:30;20.15;;;7.43;;
69854;SDS011;57146;48.140;16.304;2024-01-30T08:39:57;24.42;;;8.40;;
69854;SDS011;57146;48.140;16.304;2024-01-30T08:42:24;20.58;;;7.53;;
69854;SDS011;57146;48.140;16.304;2024-01-30T08:44:51;24.03;;;7.67;;
69854;SDS011;57146;48.140;16.304;2024-01-30T08:47:18;20.05;;;8.10;;
69854;SDS011;57146;48.140;16.304;2024-01-30T08:49:45;22.75;;;7.85;;
69854;SDS011;57146;48.140;16.304;2024-01-30T08:52:12;21.08;;;8.55;;
69854;SDS011;57146;48.140;16.304;2024-01-30T08:55:03;18.83;;;7.25;;
69854;SDS011;57146;48.140;16.304;2024-01-30T08:57:30;21.13;;;7.70;;
69854;SDS011;57146;48.140;16.304;2024-01-30T08:59:57;25.77;;;8.25;;
69854;SDS011;57146;48.140;16.304;2024-01-30T09:02:24;23.08;;;7.85;;
69854;SDS011;57146;48.140;16.304;2024-01-30T09:04:53;22.80;;;7.70;;
69854;SDS011;57146;48.140;16.304;2024-01-30T09:07:20;21.25;;;8.38;;
69854;SDS011;57146;48.140;16.304;2024-01-30T09:09:47;23.43;;;8.17;;
69854;SDS011;57146;48.140;16.304;2024-01-30T09:12:14;22.83;;;7.88;;
69854;SDS011;57146;48.140;16.304;2024-01-30T09:14:41;21.10;;;8.10;;
69854;SDS011;57146;48.140;16.304;2024-01-30T09:17:09;19.27;;;7.75;;
69854;SDS011;57146;48.140;16.304;2024-01-30T09:19:36;22.55;;;7.53;;
69854;SDS011;57146;48.140;16.304;2024-01-30T09:22:03;20.57;;;7.57;;
69854;SDS011;57146;48.140;16.304;2024-01-30T09:24:30;20.35;;;7.43;;
69854;SDS011;57146;48.140;16.304;2024-01-30T09:26:57;20.20;;;7.78;;
69854;SDS011;57146;48.140;16.304;2024-01-30T09:29:24;21.58;;;7.80;;
69854;SDS011;57146;48.140;16.304;2024-01-30T09:31:51;19.70;;;7.80;;
69854;SDS011;57146;48.140;16.304;2024-01-30T09:34:18;23.27;;;7.67;;
69854;SDS011;57146;48.140;16.304;2024-01-30T09:36:49;21.20;;;7.78;;
69854;SDS011;57146;48.140;16.304;2024-01-30T09:39:15;19.48;;;7.75;;
69854;SDS011;57146;48.140;16.304;2024-01-30T09:41:49;17.85;;;7.28;;
69854;SDS011;57146;48.140;16.304;2024-01-30T09:44:22;22.05;;;7.90;;
69854;SDS011;57146;48.140;16.304;2024-01-30T09:46:52;21.00;;;7.90;;
69854;SDS011;57146;48.140;16.304;2024-01-30T09:49:20;19.75;;;7.43;;
69854;SDS011;57146;48.140;16.304;2024-01-30T09:51:47;18.42;;;7.45;;
69854;SDS011;57146;48.140;16.304;2024-01-30T09:54:15;19.13;;;7.35;;
69854;SDS011;57146;48.140;16.304;2024-01-30T09:56:43;21.70;;;7.47;;
69854;SDS011;57146;48.140;16.304;2024-01-30T09:59:11;19.47;;;7.20;;
69854;SDS011;57146;48.140;16.304;2024-01-30T10:01:37;16.52;;;6.72;;
69854;SDS011;57146;48.140;16.304;2024-01-30T10:04:37;18.00;;;6.82;;
69854;SDS011;57146;48.140;16.304;2024-01-30T10:07:04;18.83;;;6.78;;
69854;SDS011;57146;48.140;16.304;2024-01-30T10:09:32;19.38;;;6.93;;
69854;SDS011;57146;48.140;16.304;2024-01-30T10:12:01;18.57;;;6.97;;
69854;SDS011;57146;48.140;16.304;2024-01-30T10:14:39;18.48;;;7.20;;
69854;SDS011;57146;48.140;16.304;2024-01-30T10:17:07;17.35;;;6.72;;
69854;SDS011;57146;48.140;16.304;2024-01-30T10:19:51;17.48;;;6.55;;
69854;SDS011;57146;48.140;16.304;2024-01-30T10:22:18;17.83;;;6.72;;
69854;SDS011;57146;48.140;16.304;2024-01-30T10:24:51;17.80;;;6.97;;
69854;SDS011;57146;48.140;16.304;2024-01-30T10:27:23;18.30;;;6.72;;
69854;SDS011;57146;48.140;16.304;2024-01-30T10:29:52;17.83;;;6.80;;
69854;SDS011;57146;48.140;16.304;2024-01-30T10:32:19;18.83;;;6.63;;
69854;SDS011;57146;48.140;16.304;2024-01-30T10:34:50;17.67;;;6.70;;
69854;SDS011;57146;48.140;16.304;2024-01-30T10:37:17;15.47;;;6.37;;
69854;SDS011;57146;48.140;16.304;2024-01-30T10:39:46;18.67;;;6.22;;
69854;SDS011;57146;48.140;16.304;2024-01-30T10:42:24;17.02;;;5.78;;
69854;SDS011;57146;48.140;16.304;2024-01-30T10:47:32;17.80;;;6.00;;
69854;SDS011;57146;48.140;16.304;2024-01-30T10:50:01;16.00;;;6.30;;
69854;SDS011;57146;48.140;16.304;2024-01-30T10:52:29;17.27;;;6.40;;
69854;SDS011;57146;48.140;16.304;2024-01-30T10:54:56;17.40;;;6.05;;
69854;SDS011;57146;48.140;16.304;2024-01-30T10:57:47;17.52;;;6.22;;
69854;SDS011;57146;48.140;16.304;2024-01-30T11:00:14;16.27;;;5.90;;
69854;SDS011;57146;48.140;16.304;2024-01-30T11:02:43;15.83;;;6.27;;
69854;SDS011;57146;48.140;16.304;2024-01-30T11:05:11;18.60;;;6.22;;
69854;SDS011;57146;48.140;16.304;2024-01-30T11:08:12;16.30;;;5.60;;
69854;SDS011;57146;48.140;16.304;2024-01-30T11:10:48;15.98;;;6.15;;
69854;SDS011;57146;48.140;16.304;2024-01-30T11:13:16;17.40;;;6.10;;
69854;SDS011;57146;48.140;16.304;2024-01-30T11:15:43;14.50;;;5.50;;
69854;SDS011;57146;48.140;16.304;2024-01-30T11:18:27;18.25;;;6.38;;
69854;SDS011;57146;48.140;16.304;2024-01-30T11:21:20;16.25;;;6.22;;
69854;SDS011;57146;48.140;16.304;2024-01-30T11:23:53;14.70;;;6.15;;
69854;SDS011;57146;48.140;16.304;2024-01-30T11:26:23;16.98;;;5.85;;
69854;SDS011;57146;48.140;16.304;2024-01-30T11:29:19;15.90;;;5.70;;
69854;SDS011;57146;48.140;16.304;2024-01-30T11:31:55;17.13;;;6.30;;
69854;SDS011;57146;48.140;16.304;2024-01-30T11:34:23;16.52;;;6.30;;
69854;SDS011;57146;48.140;16.304;2024-01-30T11:36:55;16.60;;;5.97;;
69854;SDS011;57146;48.140;16.304;2024-01-30T11:39:28;16.17;;;6.35;;
69854;SDS011;57146;48.140;16.304;2024-01-30T11:41:57;16.43;;;6.53;;
69854;SDS011;57146;48.140;16.304;2024-01-30T11:44:26;15.18;;;6.03;;
69854;SDS011;57146;48.140;16.304;2024-01-30T11:46:53;14.20;;;5.88;;
69854;SDS011;57146;48.140;16.304;2024-01-30T11:49:20;14.38;;;5.72;;
69854;SDS011;57146;48.140;16.304;2024-01-30T11:51:47;14.38;;;6.10;;
69854;SDS011;57146;48.140;16.304;2024-01-30T11:54:16;17.50;;;6.50;;
69854;SDS011;57146;48.140;16.304;2024-01-30T11:56:43;17.55;;;6.55;;
69854;SDS011;57146;48.140;16.304;2024-01-30T11:59:11;15.43;;;5.93;;
69854;SDS011;57146;48.140;16.304;2024-01-30T12:01:38;14.18;;;5.78;;
69854;SDS011;57146;48.140;16.304;2024-01-30T12:04:07;14.95;;;6.45;;
69854;SDS011;57146;48.140;16.304;2024-01-30T12:06:38;15.20;;;6.20;;
69854;SDS011;57146;48.140;16.304;2024-01-30T12:09:06;18.20;;;5.93;;
69854;SDS011;57146;48.140;16.304;2024-01-30T12:11:33;17.48;;;5.55;;
69854;SDS011;57146;48.140;16.304;2024-01-30T12:14:14;15.40;;;6.10;;
69854;SDS011;57146;48.140;16.304;2024-01-30T12:16:42;15.50;;;5.97;;
69854;SDS011;57146;48.140;16.304;2024-01-30T12:19:09;14.73;;;6.23;;
69854;SDS011;57146;48.140;16.304;2024-01-30T12:21:39;16.50;;;6.05;;
69854;SDS011;57146;48.140;16.304;2024-01-30T12:24:06;17.60;;;6.63;;
69854;SDS011;57146;48.140;16.304;2024-01-30T12:26:35;15.73;;;6.00;;
69854;SDS011;57146;48.140;16.304;2024-01-30T12:29:03;17.40;;;5.90;;
69854;SDS011;57146;48.140;16.304;2024-01-30T12:31:31;17.83;;;6.37;;
69854;SDS011;57146;48.140;16.304;2024-01-30T12:34:00;16.17;;;6.47;;
69854;SDS011;57146;48.140;16.304;2024-01-30T12:36:28;18.48;;;6.07;;
69854;SDS011;57146;48.140;16.304;2024-01-30T12:38:56;14.80;;;5.93;;
69854;SDS011;57146;48.140;16.304;2024-01-30T12:41:26;14.98;;;5.78;;
69854;SDS011;57146;48.140;16.304;2024-01-30T12:43:52;16.37;;;5.90;;
69854;SDS011;57146;48.140;16.304;2024-01-30T12:46:20;15.73;;;6.03;;
69854;SDS011;57146;48.140;16.304;2024-01-30T12:48:47;15.20;;;5.55;;
69854;SDS011;57146;48.140;16.304;2024-01-30T12:51:14;15.85;;;5.53;;
69854;SDS011;57146;48.140;16.304;2024-01-30T12:53:41;15.65;;;6.13;;
69854;SDS011;57146;48.140;16.304;2024-01-30T12:56:09;16.40;;;6.00;;
69854;SDS011;57146;48.140;16.304;2024-01-30T12:58:36;16.10;;;5.68;;
69854;SDS011;57146;48.140;16.304;2024-01-30T13:01:03;15.05;;;5.78;;
69854;SDS011;57146;48.140;16.304;2024-01-30T13:03:31;19.25;;;5.85;;
69854;SDS011;57146;48.140;16.304;2024-01-30T13:06:00;17.38;;;5.60;;
69854;SDS011;57146;48.140;16.304;2024-01-30T13:08:27;15.07;;;6.10;;
69854;SDS011;57146;48.140;16.304;2024-01-30T13:10:55;14.68;;;5.70;;
69854;SDS011;57146;48.140;16.304;2024-01-30T13:13:21;13.52;;;5.30;;
69854;SDS011;57146;48.140;16.304;2024-01-30T13:15:49;16.20;;;5.88;;
69854;SDS011;57146;48.140;16.304;2024-01-30T13:18:16;13.55;;;5.20;;
69854;SDS011;57146;48.140;16.304;2024-01-30T13:20:43;13.07;;;5.60;;
69854;SDS011;57146;48.140;16.304;2024-01-30T13:23:10;15.23;;;5.50;;
69854;SDS011;57146;48.140;16.304;2024-01-30T13:25:37;16.27;;;5.38;;
69854;SDS011;57146;48.140;16.304;2024-01-30T13:28:05;13.60;;;5.75;;
69854;SDS011;57146;48.140;16.304;2024-01-30T13:30:32;16.17;;;5.70;;
69854;SDS011;57146;48.140;16.304;2024-01-30T13:32:59;13.53;;;5.27;;
69854;SDS011;57146;48.140;16.304;2024-01-30T13:35:26;15.35;;;5.70;;
69854;SDS011;57146;48.140;16.304;2024-01-30T13:37:53;14.30;;;5.05;;
69854;SDS011;57146;48.140;16.304;2024-01-30T13:40:20;13.23;;;5.32;;
69854;SDS011;57146;48.140;16.304;2024-01-30T13:42:50;15.02;;;5.57;;
69854;SDS011;57146;48.140;16.304;2024-01-30T13:45:21;12.07;;;4.90;;
69854;SDS011;57146;48.140;16.304;2024-01-30T13:47:49;12.70;;;5.00;;
69854;SDS011;57146;48.140;16.304;2024-01-30T13:50:16;13.10;;;4.93;;
69854;SDS011;57146;48.140;16.304;2024-01-30T13:52:43;13.82;;;5.53;;
69854;SDS011;57146;48.140;16.304;2024-01-30T13:55:11;14.15;;;5.00;;
69854;SDS011;57146;48.140;16.304;2024-01-30T13:57:39;17.47;;;5.67;;
69854;SDS011;57146;48.140;16.304;2024-01-30T14:00:07;14.05;;;4.95;;
69854;SDS011;57146;48.140;16.304;2024-01-30T14:02:40;18.27;;;5.95;;
69854;SDS011;57146;48.140;16.304;2024-01-30T14:05:07;12.48;;;5.05;;
69854;SDS011;57146;48.140;16.304;2024-01-30T14:07:35;14.65;;;5.53;;
69854;SDS011;57146;48.140;16.304;2024-01-30T14:10:04;13.80;;;5.20;;
69854;SDS011;57146;48.140;16.304;2024-01-30T14:12:37;15.35;;;5.05;;
69854;SDS011;57146;48.140;16.304;2024-01-30T14:15:04;13.57;;;5.18;;
69854;SDS011;57146;48.140;16.304;2024-01-30T14:17:49;13.38;;;5.20;;
69854;SDS011;57146;48.140;16.304;2024-01-30T14:20:16;15.55;;;5.30;;
69854;SDS011;57146;48.140;16.304;2024-01-30T14:22:43;16.47;;;5.37;;
69854;SDS011;57146;48.140;16.304;2024-01-30T14:25:10;13.98;;;5.80;;
69854;SDS011;57146;48.140;16.304;2024-01-30T14:27:37;15.43;;;5.70;;
69854;SDS011;57146;48.140;16.304;2024-01-30T14:30:04;13.70;;;5.22;;